sensor_id;sensor_type;location;lat;lon;timestamp;P1;durP1;ratioP1;P2;durP2;ratioP2
45848;SDS011;31567;54.600;9.842;2022-11-20T00:01:47;4.53;;;2.67;;
45848;SDS011;31567;54.600;9.842;2022-11-20T00:05:27;2.45;;;2.10;;
45848;SDS011;31567;54.600;9.842;2022-11-20T00:09:09;3.40;;;2.30;;
45848;SDS011;31567;54.600;9.842;2022-11-20T00:12:49;3.78;;;2.25;;
45848;SDS011;31567;54.600;9.842;2022-11-20T00:16:29;4.93;;;2.92;;
45848;SDS011;31567;54.600;9.842;2022-11-20T00:20:10;3.85;;;2.38;;
45848;SDS011;31567;54.600;9.842;2022-11-20T00:23:51;4.63;;;3.25;;
45848;SDS011;31567;54.600;9.842;2022-11-20T00:27:32;4.35;;;2.63;;
45848;SDS011;31567;54.600;9.842;2022-11-20T00:31:12;3.35;;;2.97;;
45848;SDS011;31567;54.600;9.842;2022-11-20T00:34:53;2.95;;;2.60;;
45848;SDS011;31567;54.600;9.842;2022-11-20T00:38:33;5.15;;;3.00;;
45848;SDS011;31567;54.600;9.842;2022-11-20T00:42:13;8.15;;;4.00;;
45848;SDS011;31567;54.600;9.842;2022-11-20T00:45:59;4.30;;;2.88;;
45848;SDS011;31567;54.600;9.842;2022-11-20T00:49:44;4.18;;;3.30;;
45848;SDS011;31567;54.600;9.842;2022-11-20T00:53:23;5.40;;;3.28;;
45848;SDS011;31567;54.600;9.842;2022-11-20T00:57:03;7.22;;;3.92;;
45848;SDS011;31567;54.600;9.842;2022-11-20T01:00:43;7.03;;;3.45;;
45848;SDS011;31567;54.600;9.842;2022-11-20T01:04:23;5.25;;;4.18;;
45848;SDS011;31567;54.600;9.842;2022-11-20T01:08:02;4.47;;;3.53;;
45848;SDS011;31567;54.600;9.842;2022-11-20T01:11:43;6.35;;;3.47;;
45848;SDS011;31567;54.600;9.842;2022-11-20T01:15:24;8.38;;;3.60;;
45848;SDS011;31567;54.600;9.842;2022-11-20T01:19:04;4.28;;;2.90;;
45848;SDS011;31567;54.600;9.842;2022-11-20T01:22:45;4.32;;;3.50;;
45848;SDS011;31567;54.600;9.842;2022-11-20T01:26:27;4.18;;;3.40;;
45848;SDS011;31567;54.600;9.842;2022-11-20T01:30:08;4.68;;;3.58;;
45848;SDS011;31567;54.600;9.842;2022-11-20T01:33:49;5.35;;;3.30;;
45848;SDS011;31567;54.600;9.842;2022-11-20T01:37:31;4.65;;;3.75;;
45848;SDS011;31567;54.600;9.842;2022-11-20T01:41:11;3.88;;;3.25;;
45848;SDS011;31567;54.600;9.842;2022-11-20T01:53:17;3.15;;;2.95;;
45848;SDS011;31567;54.600;9.842;2022-11-20T01:57:00;3.28;;;2.97;;
45848;SDS011;31567;54.600;9.842;2022-11-20T02:00:40;4.22;;;2.85;;
45848;SDS011;31567;54.600;9.842;2022-11-20T02:04:20;6.18;;;3.15;;
45848;SDS011;31567;54.600;9.842;2022-11-20T02:08:02;3.33;;;2.50;;
45848;SDS011;31567;54.600;9.842;2022-11-20T02:11:43;2.85;;;2.45;;
45848;SDS011;31567;54.600;9.842;2022-11-20T02:15:22;2.70;;;2.50;;
45848;SDS011;31567;54.600;9.842;2022-11-20T02:19:02;4.28;;;2.90;;
45848;SDS011;31567;54.600;9.842;2022-11-20T02:22:48;5.40;;;2.90;;
45848;SDS011;31567;54.600;9.842;2022-11-20T02:26:46;3.70;;;3.05;;
45848;SDS011;31567;54.600;9.842;2022-11-20T02:30:33;2.38;;;2.25;;
45848;SDS011;31567;54.600;9.842;2022-11-20T02:34:13;2.95;;;2.70;;
45848;SDS011;31567;54.600;9.842;2022-11-20T02:37:54;2.85;;;2.65;;
45848;SDS011;31567;54.600;9.842;2022-11-20T02:41:36;2.70;;;2.50;;
45848;SDS011;31567;54.600;9.842;2022-11-20T02:45:16;3.13;;;2.70;;
45848;SDS011;31567;54.600;9.842;2022-11-20T02:48:55;3.70;;;2.83;;
45848;SDS011;31567;54.600;9.842;2022-11-20T02:52:35;3.30;;;3.00;;
45848;SDS011;31567;54.600;9.842;2022-11-20T02:56:15;6.65;;;3.70;;
45848;SDS011;31567;54.600;9.842;2022-11-20T02:59:54;5.20;;;3.20;;
45848;SDS011;31567;54.600;9.842;2022-11-20T03:03:34;4.57;;;3.35;;
45848;SDS011;31567;54.600;9.842;2022-11-20T03:07:14;4.20;;;3.35;;
45848;SDS011;31567;54.600;9.842;2022-11-20T03:10:53;3.70;;;3.05;;
45848;SDS011;31567;54.600;9.842;2022-11-20T03:14:34;4.07;;;3.63;;
45848;SDS011;31567;54.600;9.842;2022-11-20T03:18:13;3.72;;;3.42;;
45848;SDS011;31567;54.600;9.842;2022-11-20T03:21:53;3.50;;;3.20;;
45848;SDS011;31567;54.600;9.842;2022-11-20T03:25:33;3.40;;;3.10;;
45848;SDS011;31567;54.600;9.842;2022-11-20T03:29:12;4.53;;;3.42;;
45848;SDS011;31567;54.600;9.842;2022-11-20T03:32:52;4.00;;;3.50;;
45848;SDS011;31567;54.600;9.842;2022-11-20T03:36:33;4.50;;;3.17;;
45848;SDS011;31567;54.600;9.842;2022-11-20T03:40:13;3.55;;;3.25;;
45848;SDS011;31567;54.600;9.842;2022-11-20T03:44:03;3.78;;;2.78;;
45848;SDS011;31567;54.600;9.842;2022-11-20T03:47:44;3.60;;;3.00;;
45848;SDS011;31567;54.600;9.842;2022-11-20T03:51:24;3.00;;;2.70;;
45848;SDS011;31567;54.600;9.842;2022-11-20T03:55:06;3.40;;;3.10;;
45848;SDS011;31567;54.600;9.842;2022-11-20T03:58:46;3.88;;;3.35;;
45848;SDS011;31567;54.600;9.842;2022-11-20T04:02:26;4.85;;;2.72;;
45848;SDS011;31567;54.600;9.842;2022-11-20T04:06:06;2.78;;;2.58;;
45848;SDS011;31567;54.600;9.842;2022-11-20T04:09:47;3.00;;;2.72;;
45848;SDS011;31567;54.600;9.842;2022-11-20T04:13:27;3.05;;;2.83;;
45848;SDS011;31567;54.600;9.842;2022-11-20T04:17:07;3.83;;;2.83;;
45848;SDS011;31567;54.600;9.842;2022-11-20T04:20:46;2.95;;;2.63;;
45848;SDS011;31567;54.600;9.842;2022-11-20T04:24:26;3.65;;;2.38;;
45848;SDS011;31567;54.600;9.842;2022-11-20T04:28:06;2.90;;;2.58;;
45848;SDS011;31567;54.600;9.842;2022-11-20T04:31:45;2.40;;;2.20;;
45848;SDS011;31567;54.600;9.842;2022-11-20T04:35:25;2.63;;;1.73;;
45848;SDS011;31567;54.600;9.842;2022-11-20T04:39:05;2.78;;;1.80;;
45848;SDS011;31567;54.600;9.842;2022-11-20T04:42:45;1.63;;;1.52;;
45848;SDS011;31567;54.600;9.842;2022-11-20T04:46:25;2.03;;;1.92;;
45848;SDS011;31567;54.600;9.842;2022-11-20T04:50:06;1.67;;;1.58;;
45848;SDS011;31567;54.600;9.842;2022-11-20T04:53:46;2.00;;;1.90;;
45848;SDS011;31567;54.600;9.842;2022-11-20T04:57:26;1.95;;;1.85;;
45848;SDS011;31567;54.600;9.842;2022-11-20T05:01:15;2.10;;;1.88;;
45848;SDS011;31567;54.600;9.842;2022-11-20T05:04:57;2.42;;;1.80;;
45848;SDS011;31567;54.600;9.842;2022-11-20T05:08:36;1.88;;;1.73;;
45848;SDS011;31567;54.600;9.842;2022-11-20T05:12:16;1.70;;;1.60;;
45848;SDS011;31567;54.600;9.842;2022-11-20T05:16:00;2.17;;;1.98;;
45848;SDS011;31567;54.600;9.842;2022-11-20T05:19:44;2.00;;;1.90;;
45848;SDS011;31567;54.600;9.842;2022-11-20T05:23:24;2.35;;;2.15;;
45848;SDS011;31567;54.600;9.842;2022-11-20T05:27:04;2.30;;;2.03;;
45848;SDS011;31567;54.600;9.842;2022-11-20T05:30:44;2.10;;;1.90;;
45848;SDS011;31567;54.600;9.842;2022-11-20T05:34:23;2.35;;;2.17;;
45848;SDS011;31567;54.600;9.842;2022-11-20T05:38:03;1.95;;;1.85;;
45848;SDS011;31567;54.600;9.842;2022-11-20T05:41:42;2.10;;;2.00;;
45848;SDS011;31567;54.600;9.842;2022-11-20T05:45:22;2.05;;;1.95;;
45848;SDS011;31567;54.600;9.842;2022-11-20T05:49:01;2.65;;;2.45;;
45848;SDS011;31567;54.600;9.842;2022-11-20T05:52:41;2.75;;;2.28;;
45848;SDS011;31567;54.600;9.842;2022-11-20T05:56:21;2.17;;;2.00;;
45848;SDS011;31567;54.600;9.842;2022-11-20T06:00:01;2.40;;;2.30;;
45848;SDS011;31567;54.600;9.842;2022-11-20T06:03:42;2.10;;;1.85;;
45848;SDS011;31567;54.600;9.842;2022-11-20T06:07:24;1.98;;;1.88;;
45848;SDS011;31567;54.600;9.842;2022-11-20T06:11:05;1.95;;;1.85;;
45848;SDS011;31567;54.600;9.842;2022-11-20T06:14:46;1.85;;;1.75;;
45848;SDS011;31567;54.600;9.842;2022-11-20T06:18:26;1.63;;;1.35;;
45848;SDS011;31567;54.600;9.842;2022-11-20T06:22:09;1.67;;;1.50;;
45848;SDS011;31567;54.600;9.842;2022-11-20T06:25:49;1.50;;;1.40;;
45848;SDS011;31567;54.600;9.842;2022-11-20T06:29:28;1.55;;;1.45;;
45848;SDS011;31567;54.600;9.842;2022-11-20T06:33:08;1.58;;;1.48;;
45848;SDS011;31567;54.600;9.842;2022-11-20T06:36:47;1.67;;;1.50;;
45848;SDS011;31567;54.600;9.842;2022-11-20T06:40:27;1.60;;;1.50;;
45848;SDS011;31567;54.600;9.842;2022-11-20T06:44:06;1.45;;;1.45;;
45848;SDS011;31567;54.600;9.842;2022-11-20T06:47:46;3.95;;;1.65;;
45848;SDS011;31567;54.600;9.842;2022-11-20T06:51:26;1.60;;;1.50;;
45848;SDS011;31567;54.600;9.842;2022-11-20T06:55:05;2.03;;;1.88;;
45848;SDS011;31567;54.600;9.842;2022-11-20T06:58:45;1.90;;;1.80;;
45848;SDS011;31567;54.600;9.842;2022-11-20T07:02:25;1.25;;;1.25;;
45848;SDS011;31567;54.600;9.842;2022-11-20T07:06:04;1.40;;;1.30;;
45848;SDS011;31567;54.600;9.842;2022-11-20T07:09:45;1.00;;;1.00;;
45848;SDS011;31567;54.600;9.842;2022-11-20T07:13:24;2.72;;;1.02;;
45848;SDS011;31567;54.600;9.842;2022-11-20T07:17:04;1.10;;;1.10;;
45848;SDS011;31567;54.600;9.842;2022-11-20T07:20:44;1.50;;;1.40;;
45848;SDS011;31567;54.600;9.842;2022-11-20T07:24:23;1.40;;;1.30;;
45848;SDS011;31567;54.600;9.842;2022-11-20T07:28:03;1.33;;;1.23;;
45848;SDS011;31567;54.600;9.842;2022-11-20T07:31:43;1.20;;;1.20;;
45848;SDS011;31567;54.600;9.842;2022-11-20T07:35:23;1.20;;;1.20;;
45848;SDS011;31567;54.600;9.842;2022-11-20T07:39:03;1.30;;;1.20;;
45848;SDS011;31567;54.600;9.842;2022-11-20T07:42:49;1.70;;;1.60;;
45848;SDS011;31567;54.600;9.842;2022-11-20T07:46:29;2.00;;;1.90;;
45848;SDS011;31567;54.600;9.842;2022-11-20T07:50:09;2.25;;;2.05;;
45848;SDS011;31567;54.600;9.842;2022-11-20T07:53:51;1.63;;;1.52;;
45848;SDS011;31567;54.600;9.842;2022-11-20T07:57:31;1.88;;;1.77;;
45848;SDS011;31567;54.600;9.842;2022-11-20T08:01:10;3.45;;;2.00;;
45848;SDS011;31567;54.600;9.842;2022-11-20T08:04:50;3.13;;;1.88;;
45848;SDS011;31567;54.600;9.842;2022-11-20T08:08:29;1.67;;;1.58;;
45848;SDS011;31567;54.600;9.842;2022-11-20T08:12:14;1.67;;;1.58;;
45848;SDS011;31567;54.600;9.842;2022-11-20T08:16:15;3.05;;;2.20;;
45848;SDS011;31567;54.600;9.842;2022-11-20T08:19:55;2.03;;;1.92;;
45848;SDS011;31567;54.600;9.842;2022-11-20T08:23:34;3.17;;;2.13;;
45848;SDS011;31567;54.600;9.842;2022-11-20T08:27:14;1.90;;;1.80;;
45848;SDS011;31567;54.600;9.842;2022-11-20T08:30:58;2.10;;;1.90;;
45848;SDS011;31567;54.600;9.842;2022-11-20T08:34:41;2.60;;;2.40;;
45848;SDS011;31567;54.600;9.842;2022-11-20T08:38:21;1.85;;;1.75;;
45848;SDS011;31567;54.600;9.842;2022-11-20T08:42:00;2.42;;;2.15;;
45848;SDS011;31567;54.600;9.842;2022-11-20T08:45:40;2.30;;;2.10;;
45848;SDS011;31567;54.600;9.842;2022-11-20T08:49:19;2.05;;;1.80;;
45848;SDS011;31567;54.600;9.842;2022-11-20T08:53:03;2.22;;;2.00;;
45848;SDS011;31567;54.600;9.842;2022-11-20T08:56:43;2.65;;;2.15;;
45848;SDS011;31567;54.600;9.842;2022-11-20T09:00:23;2.28;;;2.10;;
45848;SDS011;31567;54.600;9.842;2022-11-20T09:04:02;2.40;;;2.17;;
45848;SDS011;31567;54.600;9.842;2022-11-20T09:07:43;1.85;;;1.75;;
45848;SDS011;31567;54.600;9.842;2022-11-20T09:11:23;1.63;;;1.58;;
45848;SDS011;31567;54.600;9.842;2022-11-20T09:15:02;1.95;;;1.85;;
45848;SDS011;31567;54.600;9.842;2022-11-20T09:18:42;1.52;;;1.42;;
45848;SDS011;31567;54.600;9.842;2022-11-20T09:22:22;1.67;;;1.40;;
45848;SDS011;31567;54.600;9.842;2022-11-20T09:26:05;1.10;;;0.85;;
45848;SDS011;31567;54.600;9.842;2022-11-20T09:29:46;1.30;;;1.20;;
45848;SDS011;31567;54.600;9.842;2022-11-20T09:33:26;0.88;;;0.88;;
45848;SDS011;31567;54.600;9.842;2022-11-20T09:37:05;1.05;;;0.95;;
45848;SDS011;31567;54.600;9.842;2022-11-20T09:40:46;1.20;;;1.20;;
45848;SDS011;31567;54.600;9.842;2022-11-20T09:56:00;2.22;;;1.05;;
45848;SDS011;31567;54.600;9.842;2022-11-20T09:59:43;1.60;;;1.50;;
45848;SDS011;31567;54.600;9.842;2022-11-20T10:03:34;1.60;;;1.50;;
45848;SDS011;31567;54.600;9.842;2022-11-20T10:07:30;1.73;;;1.60;;
45848;SDS011;31567;54.600;9.842;2022-11-20T10:15:27;1.60;;;1.50;;
45848;SDS011;31567;54.600;9.842;2022-11-20T10:31:08;3.45;;;1.35;;
45848;SDS011;31567;54.600;9.842;2022-11-20T10:34:57;2.35;;;2.13;;
45848;SDS011;31567;54.600;9.842;2022-11-20T10:38:44;2.05;;;1.40;;
45848;SDS011;31567;54.600;9.842;2022-11-20T10:42:34;1.33;;;1.30;;
45848;SDS011;31567;54.600;9.842;2022-11-20T10:46:23;1.90;;;1.80;;
45848;SDS011;31567;54.600;9.842;2022-11-20T10:50:05;1.73;;;1.50;;
45848;SDS011;31567;54.600;9.842;2022-11-20T11:01:59;2.33;;;2.13;;
45848;SDS011;31567;54.600;9.842;2022-11-20T11:05:39;2.40;;;2.30;;
45848;SDS011;31567;54.600;9.842;2022-11-20T11:09:29;1.95;;;1.85;;
45848;SDS011;31567;54.600;9.842;2022-11-20T11:13:25;1.38;;;1.25;;
45848;SDS011;31567;54.600;9.842;2022-11-20T11:17:17;2.45;;;1.77;;
45848;SDS011;31567;54.600;9.842;2022-11-20T11:20:59;1.75;;;1.38;;
45848;SDS011;31567;54.600;9.842;2022-11-20T11:24:43;1.20;;;1.10;;
45848;SDS011;31567;54.600;9.842;2022-11-20T11:28:31;1.20;;;1.20;;
45848;SDS011;31567;54.600;9.842;2022-11-20T11:32:12;1.05;;;1.05;;
45848;SDS011;31567;54.600;9.842;2022-11-20T11:36:01;1.05;;;1.02;;
45848;SDS011;31567;54.600;9.842;2022-11-20T11:39:43;1.08;;;1.08;;
45848;SDS011;31567;54.600;9.842;2022-11-20T11:43:26;1.00;;;1.00;;
45848;SDS011;31567;54.600;9.842;2022-11-20T11:47:31;0.98;;;0.93;;
45848;SDS011;31567;54.600;9.842;2022-11-20T11:51:11;0.77;;;0.77;;
45848;SDS011;31567;54.600;9.842;2022-11-20T11:54:53;1.60;;;1.10;;
45848;SDS011;31567;54.600;9.842;2022-11-20T12:06:23;1.55;;;1.45;;
45848;SDS011;31567;54.600;9.842;2022-11-20T12:10:05;1.27;;;1.17;;
45848;SDS011;31567;54.600;9.842;2022-11-20T12:13:58;1.20;;;1.10;;
45848;SDS011;31567;54.600;9.842;2022-11-20T12:17:43;0.95;;;0.80;;
45848;SDS011;31567;54.600;9.842;2022-11-20T12:25:19;0.88;;;0.88;;
45848;SDS011;31567;54.600;9.842;2022-11-20T12:46:20;1.50;;;1.40;;
45848;SDS011;31567;54.600;9.842;2022-11-20T12:50:39;1.70;;;1.60;;
45848;SDS011;31567;54.600;9.842;2022-11-20T13:06:39;1.95;;;1.85;;
45848;SDS011;31567;54.600;9.842;2022-11-20T13:10:25;1.83;;;1.73;;
45848;SDS011;31567;54.600;9.842;2022-11-20T13:18:00;2.58;;;2.38;;
45848;SDS011;31567;54.600;9.842;2022-11-20T13:21:43;1.25;;;1.23;;
45848;SDS011;31567;54.600;9.842;2022-11-20T13:25:26;1.15;;;1.05;;
45848;SDS011;31567;54.600;9.842;2022-11-20T13:29:17;0.60;;;0.60;;
45848;SDS011;31567;54.600;9.842;2022-11-20T13:33:07;0.77;;;0.77;;
45848;SDS011;31567;54.600;9.842;2022-11-20T13:37:01;1.67;;;1.02;;
45848;SDS011;31567;54.600;9.842;2022-11-20T13:40:58;1.33;;;1.10;;
45848;SDS011;31567;54.600;9.842;2022-11-20T13:45:02;1.08;;;1.08;;
45848;SDS011;31567;54.600;9.842;2022-11-20T13:56:40;1.42;;;1.33;;
45848;SDS011;31567;54.600;9.842;2022-11-20T14:00:28;1.52;;;1.42;;
45848;SDS011;31567;54.600;9.842;2022-11-20T14:04:08;1.60;;;1.50;;
45848;SDS011;31567;54.600;9.842;2022-11-20T14:07:53;1.48;;;1.42;;
45848;SDS011;31567;54.600;9.842;2022-11-20T14:11:33;1.50;;;1.40;;
45848;SDS011;31567;54.600;9.842;2022-11-20T14:15:29;1.10;;;1.10;;
45848;SDS011;31567;54.600;9.842;2022-11-20T14:22:58;1.75;;;1.40;;
45848;SDS011;31567;54.600;9.842;2022-11-20T14:26:41;1.40;;;1.30;;
45848;SDS011;31567;54.600;9.842;2022-11-20T14:30:23;1.20;;;1.08;;
45848;SDS011;31567;54.600;9.842;2022-11-20T14:34:24;2.10;;;1.20;;
45848;SDS011;31567;54.600;9.842;2022-11-20T14:38:08;1.70;;;1.60;;
45848;SDS011;31567;54.600;9.842;2022-11-20T14:41:51;1.58;;;1.48;;
45848;SDS011;31567;54.600;9.842;2022-11-20T14:45:32;1.48;;;1.38;;
45848;SDS011;31567;54.600;9.842;2022-11-20T14:49:11;1.35;;;1.25;;
45848;SDS011;31567;54.600;9.842;2022-11-20T14:53:00;1.58;;;1.48;;
45848;SDS011;31567;54.600;9.842;2022-11-20T14:56:40;1.40;;;1.30;;
45848;SDS011;31567;54.600;9.842;2022-11-20T15:00:21;1.77;;;1.33;;
45848;SDS011;31567;54.600;9.842;2022-11-20T15:04:06;1.50;;;1.40;;
45848;SDS011;31567;54.600;9.842;2022-11-20T15:07:50;2.20;;;1.50;;
45848;SDS011;31567;54.600;9.842;2022-11-20T15:11:57;2.20;;;2.00;;
45848;SDS011;31567;54.600;9.842;2022-11-20T15:15:43;2.05;;;1.95;;
45848;SDS011;31567;54.600;9.842;2022-11-20T15:19:27;2.47;;;2.28;;
45848;SDS011;31567;54.600;9.842;2022-11-20T15:23:09;2.83;;;2.10;;
45848;SDS011;31567;54.600;9.842;2022-11-20T15:26:51;2.47;;;2.05;;
45848;SDS011;31567;54.600;9.842;2022-11-20T15:30:30;2.70;;;2.03;;
45848;SDS011;31567;54.600;9.842;2022-11-20T15:34:15;4.43;;;2.45;;
45848;SDS011;31567;54.600;9.842;2022-11-20T15:37:55;3.35;;;2.38;;
45848;SDS011;31567;54.600;9.842;2022-11-20T15:41:35;4.50;;;3.42;;
45848;SDS011;31567;54.600;9.842;2022-11-20T15:45:15;4.20;;;3.78;;
45848;SDS011;31567;54.600;9.842;2022-11-20T15:48:55;4.90;;;4.07;;
45848;SDS011;31567;54.600;9.842;2022-11-20T15:52:35;4.30;;;3.90;;
45848;SDS011;31567;54.600;9.842;2022-11-20T15:56:15;6.35;;;4.18;;
45848;SDS011;31567;54.600;9.842;2022-11-20T15:59:55;3.42;;;2.83;;
45848;SDS011;31567;54.600;9.842;2022-11-20T16:03:34;3.15;;;2.58;;
45848;SDS011;31567;54.600;9.842;2022-11-20T16:07:14;3.28;;;2.97;;
45848;SDS011;31567;54.600;9.842;2022-11-20T16:10:53;3.38;;;3.08;;
45848;SDS011;31567;54.600;9.842;2022-11-20T16:14:33;4.85;;;3.63;;
45848;SDS011;31567;54.600;9.842;2022-11-20T16:18:31;4.78;;;4.10;;
45848;SDS011;31567;54.600;9.842;2022-11-20T16:22:11;5.07;;;4.32;;
45848;SDS011;31567;54.600;9.842;2022-11-20T16:25:51;5.03;;;4.40;;
45848;SDS011;31567;54.600;9.842;2022-11-20T16:29:30;5.57;;;4.25;;
45848;SDS011;31567;54.600;9.842;2022-11-20T16:33:11;6.95;;;4.20;;
45848;SDS011;31567;54.600;9.842;2022-11-20T16:36:52;4.43;;;4.03;;
45848;SDS011;31567;54.600;9.842;2022-11-20T16:40:31;6.30;;;5.20;;
45848;SDS011;31567;54.600;9.842;2022-11-20T16:44:11;5.53;;;4.57;;
45848;SDS011;31567;54.600;9.842;2022-11-20T16:47:50;5.85;;;5.25;;
45848;SDS011;31567;54.600;9.842;2022-11-20T16:51:31;6.20;;;4.97;;
45848;SDS011;31567;54.600;9.842;2022-11-20T16:55:13;5.97;;;5.28;;
45848;SDS011;31567;54.600;9.842;2022-11-20T16:58:54;5.28;;;4.78;;
45848;SDS011;31567;54.600;9.842;2022-11-20T17:02:35;6.05;;;3.90;;
45848;SDS011;31567;54.600;9.842;2022-11-20T17:06:17;4.85;;;4.35;;
45848;SDS011;31567;54.600;9.842;2022-11-20T17:09:58;5.60;;;4.70;;
45848;SDS011;31567;54.600;9.842;2022-11-20T17:13:39;6.88;;;6.18;;
45848;SDS011;31567;54.600;9.842;2022-11-20T17:17:18;10.10;;;7.72;;
45848;SDS011;31567;54.600;9.842;2022-11-20T17:20:58;13.27;;;8.98;;
45848;SDS011;31567;54.600;9.842;2022-11-20T17:24:42;9.57;;;6.82;;
45848;SDS011;31567;54.600;9.842;2022-11-20T17:28:21;10.13;;;7.30;;
45848;SDS011;31567;54.600;9.842;2022-11-20T17:32:01;9.93;;;6.45;;
45848;SDS011;31567;54.600;9.842;2022-11-20T17:35:41;8.80;;;6.97;;
45848;SDS011;31567;54.600;9.842;2022-11-20T17:39:21;10.40;;;7.22;;
45848;SDS011;31567;54.600;9.842;2022-11-20T17:43:00;9.63;;;6.53;;
45848;SDS011;31567;54.600;9.842;2022-11-20T17:46:40;7.43;;;5.90;;
45848;SDS011;31567;54.600;9.842;2022-11-20T17:50:19;10.15;;;6.90;;
45848;SDS011;31567;54.600;9.842;2022-11-20T17:53:59;6.57;;;5.97;;
45848;SDS011;31567;54.600;9.842;2022-11-20T17:57:40;6.53;;;5.22;;
45848;SDS011;31567;54.600;9.842;2022-11-20T18:01:34;6.30;;;4.35;;
45848;SDS011;31567;54.600;9.842;2022-11-20T18:05:14;4.90;;;4.40;;
45848;SDS011;31567;54.600;9.842;2022-11-20T18:08:54;5.40;;;4.60;;
45848;SDS011;31567;54.600;9.842;2022-11-20T18:12:35;5.85;;;5.10;;
45848;SDS011;31567;54.600;9.842;2022-11-20T18:16:15;7.05;;;5.47;;
45848;SDS011;31567;54.600;9.842;2022-11-20T18:19:54;5.53;;;4.47;;
45848;SDS011;31567;54.600;9.842;2022-11-20T18:23:34;4.85;;;4.35;;
45848;SDS011;31567;54.600;9.842;2022-11-20T18:27:15;4.75;;;4.32;;
45848;SDS011;31567;54.600;9.842;2022-11-20T18:30:56;7.03;;;4.50;;
45848;SDS011;31567;54.600;9.842;2022-11-20T18:34:35;5.30;;;4.80;;
45848;SDS011;31567;54.600;9.842;2022-11-20T18:38:15;5.32;;;4.82;;
45848;SDS011;31567;54.600;9.842;2022-11-20T18:41:54;6.25;;;4.45;;
45848;SDS011;31567;54.600;9.842;2022-11-20T18:46:00;5.90;;;5.30;;
45848;SDS011;31567;54.600;9.842;2022-11-20T18:49:41;6.47;;;5.78;;
45848;SDS011;31567;54.600;9.842;2022-11-20T18:53:24;7.13;;;6.40;;
45848;SDS011;31567;54.600;9.842;2022-11-20T18:57:03;7.82;;;7.00;;
45848;SDS011;31567;54.600;9.842;2022-11-20T19:00:43;10.00;;;8.68;;
45848;SDS011;31567;54.600;9.842;2022-11-20T19:04:22;10.70;;;9.60;;
45848;SDS011;31567;54.600;9.842;2022-11-20T19:08:02;11.63;;;9.07;;
45848;SDS011;31567;54.600;9.842;2022-11-20T19:11:42;10.77;;;9.13;;
45848;SDS011;31567;54.600;9.842;2022-11-20T19:15:22;8.60;;;7.68;;
45848;SDS011;31567;54.600;9.842;2022-11-20T19:19:02;9.00;;;6.80;;
45848;SDS011;31567;54.600;9.842;2022-11-20T19:22:43;8.52;;;5.35;;
45848;SDS011;31567;54.600;9.842;2022-11-20T19:26:22;6.95;;;5.53;;
45848;SDS011;31567;54.600;9.842;2022-11-20T19:30:02;6.95;;;5.72;;
45848;SDS011;31567;54.600;9.842;2022-11-20T19:33:42;7.15;;;5.82;;
45848;SDS011;31567;54.600;9.842;2022-11-20T19:37:22;9.13;;;6.10;;
45848;SDS011;31567;54.600;9.842;2022-11-20T19:41:03;7.00;;;6.07;;
45848;SDS011;31567;54.600;9.842;2022-11-20T19:44:43;7.93;;;6.25;;
45848;SDS011;31567;54.600;9.842;2022-11-20T19:48:23;7.20;;;5.95;;
45848;SDS011;31567;54.600;9.842;2022-11-20T19:52:03;8.88;;;6.22;;
45848;SDS011;31567;54.600;9.842;2022-11-20T19:55:53;9.95;;;6.25;;
45848;SDS011;31567;54.600;9.842;2022-11-20T19:59:34;7.28;;;6.00;;
45848;SDS011;31567;54.600;9.842;2022-11-20T20:03:13;7.22;;;6.10;;
45848;SDS011;31567;54.600;9.842;2022-11-20T20:06:53;6.90;;;6.20;;
45848;SDS011;31567;54.600;9.842;2022-11-20T20:10:32;8.00;;;6.38;;
45848;SDS011;31567;54.600;9.842;2022-11-20T20:14:13;6.95;;;6.10;;
45848;SDS011;31567;54.600;9.842;2022-11-20T20:17:53;7.47;;;6.63;;
45848;SDS011;31567;54.600;9.842;2022-11-20T20:21:33;8.25;;;6.55;;
45848;SDS011;31567;54.600;9.842;2022-11-20T20:25:14;7.88;;;6.85;;
45848;SDS011;31567;54.600;9.842;2022-11-20T20:28:53;7.20;;;6.50;;
45848;SDS011;31567;54.600;9.842;2022-11-20T20:32:33;8.07;;;6.93;;
45848;SDS011;31567;54.600;9.842;2022-11-20T20:36:14;8.63;;;6.38;;
45848;SDS011;31567;54.600;9.842;2022-11-20T20:39:55;9.00;;;6.57;;
45848;SDS011;31567;54.600;9.842;2022-11-20T20:43:35;8.80;;;6.80;;
45848;SDS011;31567;54.600;9.842;2022-11-20T20:47:36;7.63;;;6.30;;
45848;SDS011;31567;54.600;9.842;2022-11-20T20:51:17;7.18;;;6.47;;
45848;SDS011;31567;54.600;9.842;2022-11-20T20:54:56;6.97;;;6.05;;
45848;SDS011;31567;54.600;9.842;2022-11-20T20:58:36;8.25;;;6.60;;
45848;SDS011;31567;54.600;9.842;2022-11-20T21:02:15;7.55;;;6.50;;
45848;SDS011;31567;54.600;9.842;2022-11-20T21:05:55;7.80;;;6.40;;
45848;SDS011;31567;54.600;9.842;2022-11-20T21:09:35;10.18;;;7.53;;
45848;SDS011;31567;54.600;9.842;2022-11-20T21:13:15;9.35;;;7.45;;
45848;SDS011;31567;54.600;9.842;2022-11-20T21:16:55;10.80;;;6.68;;
45848;SDS011;31567;54.600;9.842;2022-11-20T21:20:37;9.93;;;6.75;;
45848;SDS011;31567;54.600;9.842;2022-11-20T21:24:36;9.10;;;7.68;;
45848;SDS011;31567;54.600;9.842;2022-11-20T21:28:15;8.75;;;7.47;;
45848;SDS011;31567;54.600;9.842;2022-11-20T21:31:55;9.48;;;7.38;;
45848;SDS011;31567;54.600;9.842;2022-11-20T21:35:35;10.48;;;7.05;;
45848;SDS011;31567;54.600;9.842;2022-11-20T21:39:16;9.35;;;7.30;;
45848;SDS011;31567;54.600;9.842;2022-11-20T21:42:59;8.13;;;7.25;;
45848;SDS011;31567;54.600;9.842;2022-11-20T21:46:43;10.18;;;7.47;;
45848;SDS011;31567;54.600;9.842;2022-11-20T21:50:23;11.13;;;8.40;;
45848;SDS011;31567;54.600;9.842;2022-11-20T21:54:02;12.52;;;8.93;;
45848;SDS011;31567;54.600;9.842;2022-11-20T21:57:42;9.55;;;8.07;;
45848;SDS011;31567;54.600;9.842;2022-11-20T22:01:25;12.35;;;8.95;;
45848;SDS011;31567;54.600;9.842;2022-11-20T22:05:06;11.80;;;9.10;;
45848;SDS011;31567;54.600;9.842;2022-11-20T22:08:46;12.40;;;9.15;;
45848;SDS011;31567;54.600;9.842;2022-11-20T22:12:26;10.98;;;8.38;;
45848;SDS011;31567;54.600;9.842;2022-11-20T22:16:06;12.82;;;9.10;;
45848;SDS011;31567;54.600;9.842;2022-11-20T22:19:46;9.88;;;8.15;;
45848;SDS011;31567;54.600;9.842;2022-11-20T22:23:25;9.70;;;7.38;;
45848;SDS011;31567;54.600;9.842;2022-11-20T22:27:05;10.38;;;8.05;;
45848;SDS011;31567;54.600;9.842;2022-11-20T22:30:45;12.00;;;8.43;;
45848;SDS011;31567;54.600;9.842;2022-11-20T22:34:25;9.20;;;7.97;;
45848;SDS011;31567;54.600;9.842;2022-11-20T22:38:05;9.10;;;7.90;;
45848;SDS011;31567;54.600;9.842;2022-11-20T22:41:45;9.40;;;7.47;;
45848;SDS011;31567;54.600;9.842;2022-11-20T22:45:25;10.02;;;8.05;;
45848;SDS011;31567;54.600;9.842;2022-11-20T22:49:05;10.80;;;8.23;;
45848;SDS011;31567;54.600;9.842;2022-11-20T22:52:48;10.13;;;7.38;;
45848;SDS011;31567;54.600;9.842;2022-11-20T22:56:28;9.80;;;7.88;;
45848;SDS011;31567;54.600;9.842;2022-11-20T23:00:08;9.18;;;7.80;;
45848;SDS011;31567;54.600;9.842;2022-11-20T23:03:49;7.82;;;6.60;;
45848;SDS011;31567;54.600;9.842;2022-11-20T23:07:29;11.23;;;7.53;;
45848;SDS011;31567;54.600;9.842;2022-11-20T23:11:11;8.50;;;7.25;;
45848;SDS011;31567;54.600;9.842;2022-11-20T23:14:55;9.40;;;7.30;;
45848;SDS011;31567;54.600;9.842;2022-11-20T23:18:35;8.73;;;7.13;;
45848;SDS011;31567;54.600;9.842;2022-11-20T23:22:15;9.65;;;8.07;;
45848;SDS011;31567;54.600;9.842;2022-11-20T23:25:58;9.20;;;7.57;;
45848;SDS011;31567;54.600;9.842;2022-11-20T23:29:38;10.50;;;8.13;;
45848;SDS011;31567;54.600;9.842;2022-11-20T23:33:18;12.30;;;8.60;;
45848;SDS011;31567;54.600;9.842;2022-11-20T23:36:58;13.48;;;9.20;;
45848;SDS011;31567;54.600;9.842;2022-11-20T23:40:39;11.27;;;8.73;;
45848;SDS011;31567;54.600;9.842;2022-11-20T23:44:18;10.63;;;8.65;;
45848;SDS011;31567;54.600;9.842;2022-11-20T23:47:58;11.07;;;8.68;;
45848;SDS011;31567;54.600;9.842;2022-11-20T23:51:37;11.32;;;8.82;;
45848;SDS011;31567;54.600;9.842;2022-11-20T23:55:17;13.35;;;8.60;;